createdAt,value
2023-04-12T00:00:04.357Z,1.00
2023-04-12T00:00:27.706Z,0.93
2023-04-12T00:00:52.989Z,0.82
2023-04-12T00:01:15.760Z,0.82
2023-04-12T00:01:41.096Z,0.90
2023-04-12T00:02:03.920Z,0.98
2023-04-12T00:02:27.743Z,0.85
2023-04-12T00:02:54.419Z,0.80
2023-04-12T00:03:21.057Z,0.70
2023-04-12T00:03:51.017Z,0.80
2023-04-12T00:04:14.780Z,0.90
2023-04-12T00:04:40.040Z,1.00
2023-04-12T00:05:03.768Z,0.90
2023-04-12T00:05:29.381Z,0.90
2023-04-12T00:05:55.303Z,0.90
2023-04-12T00:06:18.338Z,0.75
2023-04-12T00:06:41.129Z,0.80
2023-04-12T00:07:06.445Z,0.90
2023-04-12T00:07:30.429Z,0.90
2023-04-12T00:07:53.260Z,0.80
2023-04-12T00:08:17.215Z,0.73
2023-04-12T00:08:42.997Z,0.70
2023-04-12T00:09:05.767Z,0.70
2023-04-12T00:09:30.788Z,0.85
2023-04-12T00:09:55.108Z,0.88
2023-04-12T00:10:17.942Z,0.80
2023-04-12T00:10:40.904Z,0.77
2023-04-12T00:11:03.733Z,0.80
2023-04-12T00:11:28.504Z,0.80
2023-04-12T00:11:51.353Z,1.00
2023-04-12T00:12:14.193Z,1.10
2023-04-12T00:12:36.979Z,0.77
2023-04-12T00:12:59.724Z,0.80
2023-04-12T00:13:22.544Z,1.00
2023-04-12T00:13:45.398Z,0.90
2023-04-12T00:14:08.212Z,0.82
2023-04-12T00:14:31.257Z,0.90
2023-04-12T00:14:54.088Z,0.80
2023-04-12T00:15:19.989Z,0.77
2023-04-12T00:15:42.775Z,0.90
2023-04-12T00:16:07.421Z,0.90
2023-04-12T00:16:30.667Z,0.88
2023-04-12T00:16:53.693Z,0.80
2023-04-12T00:17:16.466Z,0.90
2023-04-12T00:17:39.282Z,0.90
2023-04-12T00:18:02.137Z,1.10
2023-04-12T00:18:25.878Z,1.00
2023-04-12T00:18:49.085Z,0.90
2023-04-12T00:19:11.938Z,0.70
2023-04-12T00:19:34.692Z,0.70
2023-04-12T00:19:57.619Z,0.80
2023-04-12T00:20:20.370Z,0.90
2023-04-12T00:20:43.633Z,0.90
2023-04-12T00:21:07.401Z,0.80
2023-04-12T00:21:30.792Z,0.90
2023-04-12T00:21:53.720Z,0.80
2023-04-12T00:22:18.733Z,0.85
2023-04-12T00:22:45.351Z,1.10
2023-04-12T00:23:09.951Z,1.05
2023-04-12T00:23:34.027Z,0.80
2023-04-12T00:23:57.218Z,0.80
2023-04-12T00:24:20.334Z,0.90
2023-04-12T00:24:43.756Z,0.90
2023-04-12T00:25:08.495Z,0.90
2023-04-12T00:25:31.300Z,0.90
2023-04-12T00:25:54.161Z,0.95
2023-04-12T00:26:16.890Z,0.75
2023-04-12T00:26:39.721Z,0.75
2023-04-12T00:27:02.572Z,1.10
2023-04-12T00:27:26.246Z,1.02
2023-04-12T00:27:49.069Z,0.90
2023-04-12T00:28:11.836Z,1.02
2023-04-12T00:28:34.753Z,0.95
2023-04-12T00:28:57.523Z,0.90
2023-04-12T00:29:21.375Z,1.13
2023-04-12T00:29:44.243Z,1.00
2023-04-12T00:30:08.838Z,0.90
2023-04-12T00:30:31.571Z,0.95
2023-04-12T00:30:54.350Z,0.90
2023-04-12T00:31:17.176Z,0.80
2023-04-12T00:31:40.397Z,0.93
2023-04-12T00:32:05.745Z,1.00
2023-04-12T00:32:28.770Z,0.82
2023-04-12T00:32:51.618Z,1.00
2023-04-12T00:33:15.514Z,0.80
2023-04-12T00:33:38.342Z,0.95
2023-04-12T00:34:01.111Z,1.02
2023-04-12T00:34:23.859Z,1.00
2023-04-12T00:34:46.795Z,1.08
2023-04-12T00:35:12.254Z,1.02
2023-04-12T00:35:35.005Z,0.98
2023-04-12T00:35:57.926Z,0.90
2023-04-12T00:36:20.686Z,0.93
2023-04-12T00:36:43.502Z,1.00
2023-04-12T00:37:06.239Z,0.80
2023-04-12T00:37:29.523Z,0.90
2023-04-12T00:37:54.836Z,0.90
2023-04-12T00:38:17.652Z,1.00
2023-04-12T00:38:40.393Z,1.00
2023-04-12T00:39:03.215Z,1.00
2023-04-12T00:39:26.268Z,1.08
2023-04-12T00:39:50.017Z,1.05
2023-04-12T00:40:14.670Z,1.00
2023-04-12T00:40:37.838Z,0.88
2023-04-12T00:41:01.034Z,0.93
2023-04-12T00:41:24.379Z,1.20
2023-04-12T00:41:47.103Z,1.20
2023-04-12T00:42:10.002Z,1.00
2023-04-12T00:42:32.833Z,0.90
2023-04-12T00:42:57.345Z,0.73
2023-04-12T00:43:20.175Z,1.05
2023-04-12T00:43:46.089Z,1.10
2023-04-12T00:44:08.833Z,1.10
2023-04-12T00:44:32.898Z,1.20
2023-04-12T00:44:55.638Z,1.15
2023-04-12T00:45:20.853Z,1.08
2023-04-12T00:45:44.590Z,1.00
2023-04-12T00:46:08.095Z,1.00
2023-04-12T00:46:31.051Z,0.95
2023-04-12T00:46:54.302Z,0.95
2023-04-12T00:47:17.123Z,1.08
2023-04-12T00:47:40.581Z,1.00
2023-04-12T00:48:03.894Z,1.10
2023-04-12T00:48:27.466Z,1.00
2023-04-12T00:48:50.744Z,0.90
2023-04-12T00:49:13.553Z,0.80
2023-04-12T00:49:36.479Z,0.90
2023-04-12T00:49:59.721Z,0.82
2023-04-12T00:50:23.390Z,0.93
2023-04-12T00:50:46.798Z,1.00
2023-04-12T00:51:09.539Z,1.20
2023-04-12T00:51:33.996Z,1.13
2023-04-12T00:52:00.200Z,1.00
2023-04-12T00:52:23.757Z,0.93
2023-04-12T00:52:46.566Z,1.20
2023-04-12T00:53:13.597Z,1.20
2023-04-12T00:53:36.474Z,1.10
2023-04-12T00:53:59.804Z,1.02
2023-04-12T00:54:22.578Z,1.00
2023-04-12T00:54:45.380Z,1.10
2023-04-12T00:55:14.378Z,1.10
2023-04-12T00:55:38.669Z,1.17
2023-04-12T00:56:02.019Z,1.40
2023-04-12T00:56:27.738Z,0.98
2023-04-12T00:56:51.117Z,1.00
2023-04-12T00:57:13.885Z,1.05
2023-04-12T00:57:38.026Z,1.20
2023-04-12T00:58:00.849Z,1.00
2023-04-12T00:58:29.569Z,1.00
2023-04-12T00:58:52.524Z,1.00
2023-04-12T00:59:15.497Z,1.08
2023-04-12T00:59:40.885Z,1.00
2023-04-12T01:00:05.199Z,1.20
2023-04-12T01:00:28.185Z,1.30
2023-04-12T01:00:53.200Z,1.20
2023-04-12T01:01:17.434Z,1.10
2023-04-12T01:01:41.509Z,1.10
2023-04-12T01:02:04.507Z,1.10
2023-04-12T01:02:27.812Z,1.05
2023-04-12T01:02:51.106Z,1.00
2023-04-12T01:03:16.652Z,0.90
2023-04-12T01:03:54.380Z,1.00
2023-04-12T01:04:17.528Z,1.10
2023-04-12T01:04:44.269Z,1.05
2023-04-12T01:05:08.017Z,1.40
2023-04-12T01:05:30.942Z,1.23
2023-04-12T01:06:10.642Z,1.23
2023-04-12T01:06:39.466Z,1.20
2023-04-12T01:07:22.625Z,1.33
2023-04-12T01:07:48.089Z,1.20
2023-04-12T01:08:15.846Z,1.10
2023-04-12T01:08:45.641Z,1.10
2023-04-12T01:09:16.960Z,1.30
2023-04-12T01:09:45.041Z,1.60
2023-04-12T01:10:10.266Z,1.42
2023-04-12T01:10:38.155Z,1.58
2023-04-12T01:11:06.465Z,2.20
2023-04-12T01:11:32.041Z,1.92
2023-04-12T01:12:02.219Z,2.22
2023-04-12T01:12:42.747Z,2.28
2023-04-12T01:13:11.070Z,2.40
2023-04-12T01:13:36.142Z,2.25
2023-04-12T01:14:03.577Z,1.95
2023-04-12T01:14:30.590Z,1.80
2023-04-12T01:14:58.670Z,1.80
2023-04-12T01:15:24.666Z,1.50
2023-04-12T01:15:51.608Z,1.20
2023-04-12T01:16:18.125Z,1.13
2023-04-12T01:16:44.776Z,1.20
2023-04-12T01:17:08.413Z,1.08
2023-04-12T01:17:32.511Z,1.13
2023-04-12T01:18:09.849Z,1.15
2023-04-12T01:18:40.898Z,0.98
2023-04-12T01:19:07.133Z,1.00
2023-04-12T01:19:45.165Z,1.20
2023-04-12T01:20:17.127Z,1.13
2023-04-12T01:20:45.033Z,0.90
2023-04-12T01:21:10.178Z,1.00
2023-04-12T01:21:42.055Z,1.08
2023-04-12T01:22:13.691Z,1.05
2023-04-12T01:23:15.112Z,0.90
2023-04-12T01:24:13.945Z,0.95
2023-04-12T01:24:41.786Z,1.10
2023-04-12T01:25:12.491Z,1.20
2023-04-12T01:25:39.910Z,1.02
2023-04-12T01:26:12.338Z,1.20
2023-04-12T01:26:37.274Z,1.10
2023-04-12T01:27:02.044Z,1.10
2023-04-12T01:27:35.869Z,1.25
2023-04-12T01:28:00.140Z,1.10
2023-04-12T01:28:24.696Z,1.10
2023-04-12T01:28:47.431Z,1.00
2023-04-12T01:29:11.378Z,1.10
2023-04-12T01:29:34.390Z,1.08
2023-04-12T01:29:57.216Z,1.10
2023-04-12T01:30:21.316Z,1.10
2023-04-12T01:30:44.090Z,1.20
2023-04-12T01:31:07.314Z,1.10
2023-04-12T01:31:30.100Z,1.10
2023-04-12T01:31:54.691Z,1.00
2023-04-12T01:32:17.641Z,1.10
2023-04-12T01:32:40.538Z,1.10
2023-04-12T01:33:07.659Z,1.02
2023-04-12T01:33:31.763Z,1.00
2023-04-12T01:33:54.894Z,1.40
2023-04-12T01:34:18.008Z,1.05
2023-04-12T01:34:41.013Z,1.05
2023-04-12T01:35:04.009Z,0.95
2023-04-12T01:35:29.370Z,0.80
2023-04-12T01:35:52.599Z,0.90
2023-04-12T01:36:18.247Z,0.90
2023-04-12T01:36:41.517Z,0.90
2023-04-12T01:37:04.296Z,1.02
2023-04-12T01:37:27.050Z,1.10
2023-04-12T01:37:52.230Z,1.00
2023-04-12T01:38:15.114Z,1.08
2023-04-12T01:38:40.551Z,0.98
2023-04-12T01:39:05.160Z,0.95
2023-04-12T01:39:28.136Z,1.00
2023-04-12T01:40:31.519Z,0.98
2023-04-12T01:40:54.900Z,1.10
2023-04-12T01:41:17.623Z,1.00
2023-04-12T01:41:42.017Z,1.05
2023-04-12T01:42:05.056Z,1.05
2023-04-12T01:42:28.593Z,0.90
2023-04-12T01:42:54.621Z,1.00
2023-04-12T01:43:17.494Z,1.00
2023-04-12T01:43:43.434Z,0.95
2023-04-12T01:44:06.351Z,1.23
2023-04-12T01:44:29.136Z,1.15
2023-04-12T01:44:51.967Z,1.02
2023-04-12T01:45:14.755Z,1.10
2023-04-12T01:45:37.553Z,0.98
2023-04-12T01:46:00.569Z,0.80
2023-04-12T01:46:25.512Z,1.20
2023-04-12T01:46:48.346Z,1.00
2023-04-12T01:47:11.027Z,0.90
2023-04-12T01:47:33.923Z,0.80
2023-04-12T01:47:56.876Z,0.90
2023-04-12T01:48:19.841Z,0.88
2023-04-12T01:48:44.489Z,1.00
2023-04-12T01:49:07.276Z,1.02
2023-04-12T01:49:34.883Z,1.23
2023-04-12T01:50:02.893Z,0.90
2023-04-12T01:50:28.562Z,1.00
2023-04-12T01:50:57.692Z,1.15
2023-04-12T01:51:26.311Z,1.00
2023-04-12T01:51:51.401Z,0.90
2023-04-12T01:52:14.357Z,0.98
2023-04-12T01:52:41.232Z,1.20
2023-04-12T01:53:08.991Z,0.90
2023-04-12T01:53:35.891Z,1.10
2023-04-12T01:54:01.309Z,1.00
2023-04-12T01:54:27.945Z,1.00
2023-04-12T01:54:51.542Z,0.88
2023-04-12T01:55:14.982Z,0.90
2023-04-12T01:55:39.046Z,0.90
2023-04-12T01:56:04.808Z,0.80
2023-04-12T01:56:29.443Z,0.80
2023-04-12T01:56:57.862Z,0.95
2023-04-12T01:57:20.685Z,0.90
2023-04-12T01:57:44.162Z,1.08
2023-04-12T01:58:08.484Z,1.10
2023-04-12T01:58:31.300Z,1.08
2023-04-12T01:58:57.285Z,0.80
2023-04-12T01:59:20.189Z,0.95
2023-04-12T01:59:43.783Z,1.10
2023-04-12T02:00:08.458Z,0.88
2023-04-12T02:00:31.560Z,0.90
2023-04-12T02:00:54.623Z,1.08
2023-04-12T02:01:18.152Z,0.80
2023-04-12T02:01:41.139Z,0.70
2023-04-12T02:02:04.153Z,1.10
2023-04-12T02:02:29.475Z,1.17
2023-04-12T02:02:52.454Z,1.08
2023-04-12T02:03:15.759Z,0.80
2023-04-12T02:03:42.246Z,1.00
2023-04-12T02:04:05.318Z,0.93
2023-04-12T02:04:28.516Z,0.90
2023-04-12T02:04:51.289Z,1.00
2023-04-12T02:05:14.099Z,1.17
2023-04-12T02:05:36.800Z,1.00
2023-04-12T02:05:59.880Z,1.17
2023-04-12T02:06:22.685Z,1.10
2023-04-12T02:06:46.295Z,1.00
2023-04-12T02:07:09.670Z,1.20
2023-04-12T02:07:33.625Z,1.00
2023-04-12T02:07:56.713Z,1.20
2023-04-12T02:08:19.698Z,1.00
2023-04-12T02:08:42.462Z,1.10
2023-04-12T02:09:08.691Z,1.00
2023-04-12T02:09:32.189Z,0.98
2023-04-12T02:09:55.048Z,1.00
2023-04-12T02:10:20.064Z,0.98
2023-04-12T02:10:42.863Z,1.00
2023-04-12T02:11:09.631Z,1.05
2023-04-12T02:11:32.361Z,1.10
2023-04-12T02:11:55.085Z,1.02
2023-04-12T02:12:17.827Z,0.90
2023-04-12T02:12:41.145Z,0.95
2023-04-12T02:13:04.523Z,0.80
2023-04-12T02:13:28.726Z,0.98
2023-04-12T02:13:51.396Z,1.17
2023-04-12T02:14:14.167Z,1.17
2023-04-12T02:14:40.131Z,1.05
2023-04-12T02:15:03.854Z,1.20
2023-04-12T02:15:27.538Z,1.23
2023-04-12T02:15:50.357Z,1.20
2023-04-12T02:16:14.421Z,1.27
2023-04-12T02:16:37.472Z,1.23
2023-04-12T02:17:02.576Z,1.30
2023-04-12T02:17:26.036Z,1.20
2023-04-12T02:17:48.998Z,1.20
2023-04-12T02:18:11.935Z,1.38
2023-04-12T02:18:37.954Z,1.33
2023-04-12T02:19:00.637Z,1.40
2023-04-12T02:19:23.392Z,1.50
2023-04-12T02:19:47.432Z,1.40
2023-04-12T02:20:12.139Z,1.40
2023-04-12T02:20:35.879Z,1.55
2023-04-12T02:20:58.719Z,1.63
2023-04-12T02:21:21.786Z,1.70
2023-04-12T02:21:45.802Z,1.50
2023-04-12T02:22:08.573Z,1.33
2023-04-12T02:22:31.282Z,1.40
2023-04-12T02:22:54.350Z,1.50
2023-04-12T02:23:17.231Z,1.60
2023-04-12T02:23:40.004Z,1.60
2023-04-12T02:24:02.799Z,1.50
2023-04-12T02:24:25.541Z,1.50
2023-04-12T02:24:48.319Z,1.35
2023-04-12T02:25:11.090Z,1.40
2023-04-12T02:25:36.193Z,1.50
2023-04-12T02:25:59.074Z,1.60
2023-04-12T02:26:23.695Z,1.52
2023-04-12T02:26:46.892Z,1.40
2023-04-12T02:27:09.741Z,1.40
2023-04-12T02:27:33.127Z,1.40
2023-04-12T02:27:56.002Z,1.55
2023-04-12T02:28:18.830Z,1.70
2023-04-12T02:28:45.786Z,1.55
2023-04-12T02:29:09.620Z,1.50
2023-04-12T02:29:32.366Z,1.50
2023-04-12T02:29:55.172Z,1.60
2023-04-12T02:30:20.397Z,1.65
2023-04-12T02:30:43.214Z,1.75
2023-04-12T02:31:07.136Z,1.70
2023-04-12T02:31:30.751Z,1.60
2023-04-12T02:31:53.461Z,1.50
2023-04-12T02:32:18.414Z,1.45
2023-04-12T02:32:45.406Z,1.55
2023-04-12T02:33:09.698Z,1.77
2023-04-12T02:33:33.429Z,1.70
2023-04-12T02:33:56.559Z,1.80
2023-04-12T02:34:19.559Z,1.60
2023-04-12T02:34:42.409Z,1.45
2023-04-12T02:35:08.651Z,1.52
2023-04-12T02:35:32.022Z,1.70
2023-04-12T02:35:56.382Z,1.80
2023-04-12T02:36:19.194Z,1.90
2023-04-12T02:36:42.032Z,2.10
2023-04-12T02:37:04.984Z,1.75
2023-04-12T02:37:29.356Z,1.85
2023-04-12T02:37:52.130Z,1.90
2023-04-12T02:38:18.095Z,1.90
2023-04-12T02:38:40.948Z,1.70
2023-04-12T02:39:04.482Z,1.65
2023-04-12T02:39:29.342Z,1.63
2023-04-12T02:39:52.622Z,1.70
2023-04-12T02:40:15.861Z,1.90
2023-04-12T02:40:40.876Z,1.80
2023-04-12T02:41:03.787Z,1.75
2023-04-12T02:41:26.609Z,1.80
2023-04-12T02:41:49.296Z,1.60
2023-04-12T02:42:12.124Z,1.67
2023-04-12T02:42:35.646Z,1.63
2023-04-12T02:42:58.571Z,1.60
2023-04-12T02:43:21.385Z,1.60
2023-04-12T02:43:46.356Z,1.70
2023-04-12T02:44:09.123Z,1.80
2023-04-12T02:44:31.985Z,1.65
2023-04-12T02:44:54.813Z,1.70
2023-04-12T02:45:17.558Z,1.80
2023-04-12T02:45:40.847Z,1.90
2023-04-12T02:46:03.693Z,1.80
2023-04-12T02:46:27.531Z,1.70
2023-04-12T02:46:50.382Z,1.55
2023-04-12T02:47:13.123Z,1.60
2023-04-12T02:47:35.909Z,1.60
2023-04-12T02:48:01.289Z,1.92
2023-04-12T02:48:25.327Z,2.13
2023-04-12T02:48:48.488Z,2.03
2023-04-12T02:49:13.611Z,1.58
2023-04-12T02:49:36.781Z,1.70
2023-04-12T02:50:00.001Z,1.98
2023-04-12T02:50:22.753Z,1.85
2023-04-12T02:50:45.617Z,1.67
2023-04-12T02:51:11.741Z,1.80
2023-04-12T02:51:35.242Z,1.75
2023-04-12T02:51:57.986Z,1.77
2023-04-12T02:52:21.296Z,1.60
2023-04-12T02:52:44.018Z,1.90
2023-04-12T02:53:06.762Z,1.58
2023-04-12T02:53:29.821Z,1.80
2023-04-12T02:53:55.215Z,2.00
2023-04-12T02:54:18.487Z,1.77
2023-04-12T02:54:41.522Z,1.60
2023-04-12T02:55:04.711Z,1.90
2023-04-12T02:55:27.498Z,1.88
2023-04-12T02:55:50.578Z,1.83
2023-04-12T02:56:13.379Z,1.70
2023-04-12T02:56:36.245Z,2.25
2023-04-12T02:56:59.052Z,2.40
2023-04-12T02:57:21.827Z,2.10
2023-04-12T02:57:46.097Z,2.17
2023-04-12T02:58:08.817Z,2.40
2023-04-12T02:58:31.586Z,2.30
2023-04-12T02:58:58.201Z,2.42
2023-04-12T02:59:21.488Z,2.28
2023-04-12T02:59:44.382Z,2.30
2023-04-12T03:00:12.495Z,2.40
2023-04-12T03:00:35.420Z,2.40
2023-04-12T03:01:00.394Z,2.47
2023-04-12T03:01:23.268Z,2.85
2023-04-12T03:01:47.031Z,2.63
2023-04-12T03:02:10.000Z,2.65
2023-04-12T03:02:33.036Z,2.70
2023-04-12T03:02:59.068Z,2.85
2023-04-12T03:03:22.571Z,2.75
2023-04-12T03:03:45.683Z,2.67
2023-04-12T03:04:08.644Z,2.42
2023-04-12T03:04:33.306Z,2.60
2023-04-12T03:04:57.196Z,2.53
2023-04-12T03:05:20.266Z,2.90
2023-04-12T03:05:47.493Z,2.70
2023-04-12T03:06:11.073Z,2.65
2023-04-12T03:06:34.454Z,2.70
2023-04-12T03:06:57.805Z,2.65
2023-04-12T03:07:22.279Z,2.55
2023-04-12T03:07:44.978Z,2.20
2023-04-12T03:08:10.180Z,2.42
2023-04-12T03:08:32.909Z,2.85
2023-04-12T03:08:58.180Z,2.67
2023-04-12T03:09:21.106Z,3.03
2023-04-12T03:09:44.913Z,3.60
2023-04-12T03:10:11.416Z,3.47
2023-04-12T03:10:34.257Z,3.28
2023-04-12T03:10:57.124Z,3.30
2023-04-12T03:11:19.866Z,3.20
2023-04-12T03:11:42.580Z,3.13
2023-04-12T03:12:06.012Z,3.30
2023-04-12T03:12:30.990Z,3.00
2023-04-12T03:12:53.788Z,2.97
2023-04-12T03:13:16.581Z,2.95
2023-04-12T03:13:39.428Z,2.90
2023-04-12T03:14:03.575Z,2.92
2023-04-12T03:14:26.419Z,3.03
2023-04-12T03:14:52.363Z,2.95
2023-04-12T03:15:15.094Z,2.90
2023-04-12T03:15:38.111Z,3.22
2023-04-12T03:16:01.018Z,2.85
2023-04-12T03:16:29.761Z,2.97
2023-04-12T03:16:53.710Z,3.03
2023-04-12T03:17:16.702Z,2.90
2023-04-12T03:17:39.473Z,2.70
2023-04-12T03:18:02.304Z,2.72
2023-04-12T03:18:25.307Z,3.00
2023-04-12T03:18:50.268Z,2.97
2023-04-12T03:19:14.362Z,3.17
2023-04-12T03:19:37.376Z,3.00
2023-04-12T03:20:04.497Z,3.00
2023-04-12T03:20:28.720Z,2.90
2023-04-12T03:20:52.696Z,3.38
2023-04-12T03:21:16.661Z,3.20
2023-04-12T03:21:39.437Z,2.90
2023-04-12T03:22:02.478Z,3.20
2023-04-12T03:22:26.196Z,2.83
2023-04-12T03:22:49.070Z,2.70
2023-04-12T03:23:11.807Z,3.00
2023-04-12T03:23:34.566Z,3.20
2023-04-12T03:23:57.537Z,3.20
2023-04-12T03:24:20.732Z,3.20
2023-04-12T03:24:44.999Z,2.85
2023-04-12T03:25:10.204Z,3.22
2023-04-12T03:25:33.027Z,3.40
2023-04-12T03:25:57.993Z,3.05
2023-04-12T03:26:20.974Z,3.10
2023-04-12T03:26:44.077Z,3.05
2023-04-12T03:27:08.365Z,3.17
2023-04-12T03:27:31.113Z,2.90
2023-04-12T03:27:54.019Z,2.75
2023-04-12T03:28:16.813Z,2.97
2023-04-12T03:28:39.534Z,3.10
2023-04-12T03:29:10.083Z,2.80
2023-04-12T03:29:36.134Z,3.10
2023-04-12T03:29:58.925Z,3.35
2023-04-12T03:30:21.785Z,3.13
2023-04-12T03:30:44.686Z,2.90
2023-04-12T03:31:08.026Z,3.38
2023-04-12T03:31:31.823Z,3.35
2023-04-12T03:31:58.264Z,3.50
2023-04-12T03:32:21.395Z,3.00
2023-04-12T03:32:44.757Z,2.90
2023-04-12T03:33:08.738Z,2.90
2023-04-12T03:33:31.500Z,2.90
2023-04-12T03:33:54.241Z,3.15
2023-04-12T03:34:17.147Z,3.08
2023-04-12T03:34:41.082Z,3.13
2023-04-12T03:35:04.849Z,3.22
2023-04-12T03:35:29.863Z,3.25
2023-04-12T03:35:52.573Z,3.28
2023-04-12T03:36:17.864Z,3.28
2023-04-12T03:36:41.815Z,3.30
2023-04-12T03:37:07.087Z,3.70
2023-04-12T03:37:29.917Z,3.33
2023-04-12T03:37:55.407Z,3.00
2023-04-12T03:38:18.222Z,3.47
2023-04-12T03:38:41.047Z,3.15
2023-04-12T03:39:06.428Z,3.28
2023-04-12T03:39:29.195Z,3.83
2023-04-12T03:39:51.981Z,3.90
2023-04-12T03:40:14.851Z,3.53
2023-04-12T03:40:37.606Z,3.40
2023-04-12T03:41:02.572Z,3.40
2023-04-12T03:41:28.182Z,3.65
2023-04-12T03:41:51.708Z,3.50
2023-04-12T03:42:29.339Z,3.83
2023-04-12T03:42:54.850Z,3.80
2023-04-12T03:43:17.652Z,3.45
2023-04-12T03:43:42.314Z,3.22
2023-04-12T03:44:08.038Z,3.00
2023-04-12T03:44:30.847Z,3.80
2023-04-12T03:44:55.923Z,3.30
2023-04-12T03:45:18.642Z,3.42
2023-04-12T03:45:41.353Z,3.45
2023-04-12T03:46:04.498Z,3.40
2023-04-12T03:46:27.438Z,3.38
2023-04-12T03:46:50.370Z,3.33
2023-04-12T03:47:15.952Z,3.30
2023-04-12T03:47:41.260Z,3.35
2023-04-12T03:48:06.954Z,3.65
2023-04-12T03:48:29.781Z,3.00
2023-04-12T03:48:55.327Z,3.00
2023-04-12T03:49:18.656Z,3.40
2023-04-12T03:49:43.771Z,3.20
2023-04-12T03:50:12.065Z,3.03
2023-04-12T03:50:44.361Z,3.30
2023-04-12T03:51:08.738Z,3.30
2023-04-12T03:51:34.267Z,3.05
2023-04-12T03:51:58.652Z,3.08
2023-04-12T03:52:23.599Z,3.10
2023-04-12T03:52:46.343Z,3.40
2023-04-12T03:53:11.594Z,3.22
2023-04-12T03:53:37.127Z,3.47
2023-04-12T03:54:00.070Z,4.05
2023-04-12T03:54:25.417Z,4.00
2023-04-12T03:54:48.224Z,3.58
2023-04-12T03:55:13.265Z,3.53
2023-04-12T03:55:37.535Z,3.65
2023-04-12T03:56:00.258Z,3.80
2023-04-12T03:56:25.925Z,3.80
2023-04-12T03:56:48.726Z,3.72
2023-04-12T03:57:11.561Z,4.30
2023-04-12T03:57:36.772Z,4.07
2023-04-12T03:57:59.527Z,3.88
2023-04-12T03:58:25.302Z,3.63
2023-04-12T03:58:48.185Z,4.20
2023-04-12T03:59:14.810Z,4.13
2023-04-12T03:59:37.969Z,3.97
2023-04-12T04:00:00.800Z,4.10
2023-04-12T04:00:23.863Z,3.92
2023-04-12T04:00:49.798Z,4.03
2023-04-12T04:01:14.020Z,4.00
2023-04-12T04:01:36.796Z,3.63
2023-04-12T04:02:02.153Z,3.92
2023-04-12T04:02:25.149Z,4.07
2023-04-12T04:02:48.489Z,4.05
2023-04-12T04:03:12.138Z,4.20
2023-04-12T04:03:35.309Z,3.92
2023-04-12T04:03:58.673Z,4.22
2023-04-12T04:04:22.911Z,4.18
2023-04-12T04:04:46.323Z,3.97
2023-04-12T04:05:09.990Z,3.75
2023-04-12T04:05:32.809Z,4.00
2023-04-12T04:05:56.357Z,4.20
2023-04-12T04:06:19.358Z,4.13
2023-04-12T04:06:42.096Z,4.20
2023-04-12T04:07:04.919Z,3.92
2023-04-12T04:07:28.168Z,4.00
2023-04-12T04:07:51.358Z,4.25
2023-04-12T04:08:14.099Z,4.10
2023-04-12T04:08:39.518Z,4.35
2023-04-12T04:09:02.287Z,4.32
2023-04-12T04:09:25.040Z,3.95
2023-04-12T04:09:47.914Z,3.40
2023-04-12T04:10:11.362Z,4.03
2023-04-12T04:10:34.200Z,4.05
2023-04-12T04:10:57.632Z,4.10
2023-04-12T04:11:20.821Z,3.88
2023-04-12T04:11:43.532Z,3.58
2023-04-12T04:12:06.424Z,3.70
2023-04-12T04:12:29.164Z,3.78
2023-04-12T04:12:51.973Z,3.47
2023-04-12T04:13:17.143Z,3.58
2023-04-12T04:13:39.911Z,3.55
2023-04-12T04:14:05.216Z,3.40
2023-04-12T04:14:29.455Z,3.40
2023-04-12T04:14:52.163Z,3.33
2023-04-12T04:15:17.715Z,3.10
2023-04-12T04:15:40.566Z,3.10
2023-04-12T04:16:04.981Z,3.30
2023-04-12T04:16:29.471Z,3.75
2023-04-12T04:16:55.283Z,3.83
2023-04-12T04:17:18.172Z,3.30
2023-04-12T04:17:43.298Z,3.40
2023-04-12T04:18:06.367Z,3.22
2023-04-12T04:18:29.293Z,3.50
2023-04-12T04:18:52.059Z,3.38
2023-04-12T04:19:17.705Z,3.38
2023-04-12T04:19:40.995Z,3.30
2023-04-12T04:20:07.212Z,3.25
2023-04-12T04:20:29.921Z,3.40
2023-04-12T04:20:55.147Z,3.20
2023-04-12T04:21:19.849Z,3.28
2023-04-12T04:21:43.230Z,3.22
2023-04-12T04:22:08.470Z,3.67
2023-04-12T04:22:33.732Z,3.60
2023-04-12T04:22:56.476Z,3.85
2023-04-12T04:23:19.349Z,3.25
2023-04-12T04:23:44.948Z,3.15
2023-04-12T04:24:10.409Z,3.65
2023-04-12T04:24:34.433Z,3.60
2023-04-12T04:24:59.640Z,3.72
2023-04-12T04:25:23.373Z,3.63
2023-04-12T04:25:48.315Z,3.70
2023-04-12T04:26:11.369Z,3.83
2023-04-12T04:26:36.346Z,3.83
2023-04-12T04:27:01.594Z,3.63
2023-04-12T04:27:27.513Z,3.35
2023-04-12T04:27:51.264Z,3.63
2023-04-12T04:28:16.173Z,3.63
2023-04-12T04:28:41.594Z,3.88
2023-04-12T04:29:05.189Z,3.70
2023-04-12T04:29:31.764Z,3.20
2023-04-12T04:29:54.556Z,3.80
2023-04-12T04:30:17.774Z,3.85
2023-04-12T04:30:40.499Z,3.53
2023-04-12T04:31:06.754Z,3.70
2023-04-12T04:31:34.652Z,3.60
2023-04-12T04:31:58.563Z,3.75
2023-04-12T04:32:21.751Z,3.88
2023-04-12T04:32:44.659Z,3.60
2023-04-12T04:33:08.127Z,3.80
2023-04-12T04:33:31.152Z,3.78
2023-04-12T04:33:54.244Z,3.97
2023-04-12T04:34:19.402Z,4.00
2023-04-12T04:34:42.243Z,3.42
2023-04-12T04:35:06.117Z,3.60
2023-04-12T04:35:28.952Z,3.75
2023-04-12T04:35:52.554Z,3.70
2023-04-12T04:36:17.710Z,3.83
2023-04-12T04:36:41.803Z,3.60
2023-04-12T04:37:04.740Z,3.35
2023-04-12T04:37:30.386Z,3.47
2023-04-12T04:37:53.932Z,3.53
2023-04-12T04:38:16.826Z,3.28
2023-04-12T04:38:40.550Z,3.40
2023-04-12T04:39:04.500Z,3.45
2023-04-12T04:39:29.522Z,3.53
2023-04-12T04:39:52.312Z,3.45
2023-04-12T04:40:17.603Z,3.30
2023-04-12T04:40:40.389Z,3.45
2023-04-12T04:41:03.235Z,3.60
2023-04-12T04:41:28.707Z,3.90
2023-04-12T04:41:55.194Z,3.72
2023-04-12T04:42:21.525Z,3.53
2023-04-12T04:42:46.582Z,3.22
2023-04-12T04:43:09.929Z,3.40
2023-04-12T04:43:34.322Z,3.70
2023-04-12T04:43:59.299Z,3.50
2023-04-12T04:44:22.591Z,3.40
2023-04-12T04:44:47.859Z,3.47
2023-04-12T04:45:15.056Z,4.10
2023-04-12T04:45:39.179Z,3.30
2023-04-12T04:46:04.277Z,3.28
2023-04-12T04:46:30.624Z,3.20
2023-04-12T04:46:53.408Z,3.60
2023-04-12T04:47:19.168Z,3.50
2023-04-12T04:47:41.965Z,3.05
2023-04-12T04:48:07.912Z,3.60
2023-04-12T04:48:30.930Z,3.67
2023-04-12T04:48:55.294Z,3.65
2023-04-12T04:49:18.104Z,3.63
2023-04-12T04:49:43.846Z,3.47
2023-04-12T04:50:08.014Z,3.63
2023-04-12T04:50:33.205Z,3.83
2023-04-12T04:50:56.010Z,3.60
2023-04-12T04:51:21.844Z,3.33
2023-04-12T04:51:46.816Z,3.40
2023-04-12T04:52:10.109Z,3.70
2023-04-12T04:52:32.893Z,4.00
2023-04-12T04:52:57.804Z,4.07
2023-04-12T04:53:22.231Z,3.60
2023-04-12T04:53:45.076Z,3.80
2023-04-12T04:54:07.845Z,3.90
2023-04-12T04:54:31.928Z,3.90
2023-04-12T04:54:57.939Z,3.90
2023-04-12T04:55:25.631Z,3.90
2023-04-12T04:55:48.314Z,3.78
2023-04-12T04:56:12.078Z,3.97
2023-04-12T04:56:34.797Z,4.15
2023-04-12T04:56:59.999Z,3.70
2023-04-12T04:57:23.140Z,3.80
2023-04-12T04:57:48.108Z,3.92
2023-04-12T04:58:12.068Z,3.65
2023-04-12T04:58:36.985Z,3.70
2023-04-12T04:59:00.065Z,4.20
2023-04-12T04:59:25.284Z,4.00
2023-04-12T04:59:49.560Z,4.20
2023-04-12T05:00:13.956Z,4.25
2023-04-12T05:00:36.779Z,4.18
2023-04-12T05:01:00.027Z,4.05
2023-04-12T05:01:26.167Z,4.40
2023-04-12T05:01:49.185Z,4.78
2023-04-12T05:02:12.081Z,5.00
2023-04-12T05:02:35.164Z,5.30
2023-04-12T05:02:58.397Z,6.00
2023-04-12T05:03:21.234Z,6.32
2023-04-12T05:03:45.551Z,6.30
2023-04-12T05:04:08.624Z,5.97
2023-04-12T05:04:31.684Z,6.15
2023-04-12T05:04:56.802Z,6.20
2023-04-12T05:05:23.502Z,6.13
2023-04-12T05:05:48.959Z,5.90
2023-04-12T05:06:11.831Z,6.70
2023-04-12T05:06:34.557Z,6.80
2023-04-12T05:06:57.276Z,6.60
2023-04-12T05:07:20.048Z,6.53
2023-04-12T05:07:45.425Z,6.22
2023-04-12T05:08:08.157Z,6.13
2023-04-12T05:08:30.941Z,6.60
2023-04-12T05:08:53.643Z,6.72
2023-04-12T05:09:16.327Z,7.28
2023-04-12T05:09:39.065Z,6.68
2023-04-12T05:10:04.990Z,6.80
2023-04-12T05:10:27.848Z,7.40
2023-04-12T05:10:52.010Z,6.63
2023-04-12T05:11:14.801Z,7.40
2023-04-12T05:11:37.760Z,7.32
2023-04-12T05:12:00.794Z,7.40
2023-04-12T05:12:23.572Z,7.60
2023-04-12T05:12:46.297Z,7.53
2023-04-12T05:13:10.110Z,7.90
2023-04-12T05:13:32.970Z,7.47
2023-04-12T05:13:56.096Z,7.78
2023-04-12T05:14:19.161Z,7.53
2023-04-12T05:14:47.926Z,7.25
2023-04-12T05:15:14.013Z,7.53
2023-04-12T05:15:36.819Z,7.63
2023-04-12T05:15:59.560Z,7.82
2023-04-12T05:16:22.319Z,7.68
2023-04-12T05:16:45.240Z,7.72
2023-04-12T05:17:08.140Z,7.50
2023-04-12T05:17:30.899Z,7.82
2023-04-12T05:17:53.767Z,7.88
2023-04-12T05:18:17.984Z,8.07
2023-04-12T05:18:40.815Z,7.45
2023-04-12T05:19:03.846Z,8.05
2023-04-12T05:19:26.610Z,7.93
2023-04-12T05:19:49.300Z,8.73
2023-04-12T05:20:12.093Z,7.65
2023-04-12T05:20:35.119Z,7.97
2023-04-12T05:21:03.049Z,8.75
2023-04-12T05:21:26.442Z,9.05
2023-04-12T05:21:49.195Z,9.27
2023-04-12T05:22:13.092Z,8.88
2023-04-12T05:22:35.850Z,8.73
2023-04-12T05:22:58.557Z,8.48
2023-04-12T05:23:21.564Z,8.05